sensor_id;sensor_type;location;lat;lon;timestamp;P1;durP1;ratioP1;P2;durP2;ratioP2
30398;SDS011;17195;50.838;7.214;2022-10-16T00:01:32;5.60;;;3.00;;
30398;SDS011;17195;50.838;7.214;2022-10-16T00:03:59;8.63;;;3.15;;
30398;SDS011;17195;50.838;7.214;2022-10-16T00:06:25;5.82;;;2.67;;
30398;SDS011;17195;50.838;7.214;2022-10-16T00:08:52;5.38;;;2.80;;
30398;SDS011;17195;50.838;7.214;2022-10-16T00:13:44;8.52;;;5.00;;
30398;SDS011;17195;50.838;7.214;2022-10-16T00:16:11;7.80;;;4.40;;
30398;SDS011;17195;50.838;7.214;2022-10-16T00:18:37;9.50;;;5.00;;
30398;SDS011;17195;50.838;7.214;2022-10-16T00:21:04;10.23;;;4.97;;
30398;SDS011;17195;50.838;7.214;2022-10-16T00:23:31;8.95;;;4.40;;
30398;SDS011;17195;50.838;7.214;2022-10-16T00:25:58;6.78;;;4.60;;
30398;SDS011;17195;50.838;7.214;2022-10-16T00:28:25;7.68;;;4.38;;
30398;SDS011;17195;50.838;7.214;2022-10-16T00:30:51;8.85;;;4.32;;
30398;SDS011;17195;50.838;7.214;2022-10-16T00:33:17;8.07;;;4.07;;
30398;SDS011;17195;50.838;7.214;2022-10-16T00:35:43;7.45;;;3.72;;
30398;SDS011;17195;50.838;7.214;2022-10-16T00:38:09;8.05;;;4.53;;
30398;SDS011;17195;50.838;7.214;2022-10-16T00:40:35;5.03;;;2.97;;
30398;SDS011;17195;50.838;7.214;2022-10-16T00:43:00;2.45;;;2.25;;
30398;SDS011;17195;50.838;7.214;2022-10-16T00:45:26;3.70;;;2.42;;
30398;SDS011;17195;50.838;7.214;2022-10-16T00:47:52;3.40;;;2.47;;
30398;SDS011;17195;50.838;7.214;2022-10-16T00:50:27;3.53;;;2.00;;
30398;SDS011;17195;50.838;7.214;2022-10-16T00:52:55;7.68;;;2.65;;
30398;SDS011;17195;50.838;7.214;2022-10-16T00:55:22;6.07;;;2.38;;
30398;SDS011;17195;50.838;7.214;2022-10-16T00:57:48;3.38;;;2.88;;
30398;SDS011;17195;50.838;7.214;2022-10-16T01:00:18;4.72;;;3.22;;
30398;SDS011;17195;50.838;7.214;2022-10-16T01:02:51;5.45;;;3.00;;
30398;SDS011;17195;50.838;7.214;2022-10-16T01:05:22;5.68;;;3.10;;
30398;SDS011;17195;50.838;7.214;2022-10-16T01:13:06;6.43;;;2.63;;
30398;SDS011;17195;50.838;7.214;2022-10-16T01:18:31;4.82;;;2.55;;
30398;SDS011;17195;50.838;7.214;2022-10-16T01:21:03;4.63;;;2.80;;
30398;SDS011;17195;50.838;7.214;2022-10-16T01:29:14;8.02;;;2.35;;
30398;SDS011;17195;50.838;7.214;2022-10-16T01:31:47;3.80;;;2.50;;
30398;SDS011;17195;50.838;7.214;2022-10-16T01:34:20;2.92;;;2.03;;
30398;SDS011;17195;50.838;7.214;2022-10-16T01:36:55;5.93;;;1.98;;
30398;SDS011;17195;50.838;7.214;2022-10-16T01:39:28;6.72;;;2.00;;
30398;SDS011;17195;50.838;7.214;2022-10-16T01:42:03;4.00;;;1.60;;
30398;SDS011;17195;50.838;7.214;2022-10-16T01:46:59;2.55;;;1.60;;
30398;SDS011;17195;50.838;7.214;2022-10-16T01:49:26;6.50;;;1.70;;
30398;SDS011;17195;50.838;7.214;2022-10-16T01:51:56;7.30;;;1.35;;
30398;SDS011;17195;50.838;7.214;2022-10-16T01:54:27;2.85;;;1.48;;
30398;SDS011;17195;50.838;7.214;2022-10-16T01:56:55;6.53;;;1.70;;
30398;SDS011;17195;50.838;7.214;2022-10-16T01:59:23;6.25;;;1.85;;
30398;SDS011;17195;50.838;7.214;2022-10-16T02:01:55;8.57;;;2.08;;
30398;SDS011;17195;50.838;7.214;2022-10-16T02:04:32;6.40;;;1.77;;
30398;SDS011;17195;50.838;7.214;2022-10-16T02:07:02;3.72;;;1.27;;
30398;SDS011;17195;50.838;7.214;2022-10-16T02:09:29;1.63;;;1.10;;
30398;SDS011;17195;50.838;7.214;2022-10-16T02:11:58;1.65;;;1.23;;
30398;SDS011;17195;50.838;7.214;2022-10-16T02:14:27;1.98;;;1.52;;
30398;SDS011;17195;50.838;7.214;2022-10-16T02:16:53;2.80;;;1.80;;
30398;SDS011;17195;50.838;7.214;2022-10-16T02:19:19;7.10;;;2.30;;
30398;SDS011;17195;50.838;7.214;2022-10-16T02:21:51;7.03;;;2.03;;
30398;SDS011;17195;50.838;7.214;2022-10-16T02:27:05;12.57;;;2.50;;
30398;SDS011;17195;50.838;7.214;2022-10-16T02:29:36;4.55;;;1.52;;
30398;SDS011;17195;50.838;7.214;2022-10-16T02:32:10;5.00;;;1.90;;
30398;SDS011;17195;50.838;7.214;2022-10-16T02:34:37;4.40;;;1.70;;
30398;SDS011;17195;50.838;7.214;2022-10-16T02:37:05;3.30;;;1.75;;
30398;SDS011;17195;50.838;7.214;2022-10-16T02:39:32;5.00;;;1.65;;
30398;SDS011;17195;50.838;7.214;2022-10-16T02:41:59;8.93;;;2.00;;
30398;SDS011;17195;50.838;7.214;2022-10-16T02:44:24;2.78;;;1.70;;
30398;SDS011;17195;50.838;7.214;2022-10-16T02:46:50;8.07;;;2.25;;
30398;SDS011;17195;50.838;7.214;2022-10-16T02:49:15;8.52;;;2.55;;
30398;SDS011;17195;50.838;7.214;2022-10-16T02:51:41;5.55;;;2.10;;
30398;SDS011;17195;50.838;7.214;2022-10-16T02:54:07;8.75;;;2.00;;
30398;SDS011;17195;50.838;7.214;2022-10-16T02:56:32;3.42;;;1.75;;
30398;SDS011;17195;50.838;7.214;2022-10-16T02:58:58;3.97;;;1.40;;
30398;SDS011;17195;50.838;7.214;2022-10-16T03:01:23;6.72;;;1.73;;
30398;SDS011;17195;50.838;7.214;2022-10-16T03:03:49;4.50;;;1.60;;
30398;SDS011;17195;50.838;7.214;2022-10-16T03:06:15;6.03;;;1.50;;
30398;SDS011;17195;50.838;7.214;2022-10-16T03:08:40;6.20;;;1.40;;
30398;SDS011;17195;50.838;7.214;2022-10-16T03:11:06;6.88;;;1.98;;
30398;SDS011;17195;50.838;7.214;2022-10-16T03:13:32;6.03;;;1.75;;
30398;SDS011;17195;50.838;7.214;2022-10-16T03:15:57;4.50;;;1.65;;
30398;SDS011;17195;50.838;7.214;2022-10-16T03:18:23;7.72;;;2.28;;
30398;SDS011;17195;50.838;7.214;2022-10-16T03:20:48;3.60;;;1.92;;
30398;SDS011;17195;50.838;7.214;2022-10-16T03:23:14;4.32;;;2.35;;
30398;SDS011;17195;50.838;7.214;2022-10-16T03:25:39;7.13;;;2.22;;
30398;SDS011;17195;50.838;7.214;2022-10-16T03:28:05;5.47;;;2.08;;
30398;SDS011;17195;50.838;7.214;2022-10-16T03:30:31;6.05;;;2.20;;
30398;SDS011;17195;50.838;7.214;2022-10-16T03:32:56;7.50;;;2.30;;
30398;SDS011;17195;50.838;7.214;2022-10-16T03:35:22;4.50;;;1.90;;
30398;SDS011;17195;50.838;7.214;2022-10-16T03:37:49;4.18;;;1.98;;
30398;SDS011;17195;50.838;7.214;2022-10-16T03:40:15;7.53;;;2.10;;
30398;SDS011;17195;50.838;7.214;2022-10-16T03:42:44;3.67;;;2.33;;
30398;SDS011;17195;50.838;7.214;2022-10-16T03:45:10;5.68;;;2.22;;
30398;SDS011;17195;50.838;7.214;2022-10-16T03:47:36;3.10;;;1.98;;
30398;SDS011;17195;50.838;7.214;2022-10-16T03:50:02;3.22;;;1.95;;
30398;SDS011;17195;50.838;7.214;2022-10-16T03:52:29;4.70;;;2.00;;
30398;SDS011;17195;50.838;7.214;2022-10-16T03:54:54;2.10;;;1.30;;
30398;SDS011;17195;50.838;7.214;2022-10-16T03:57:20;2.67;;;1.00;;
30398;SDS011;17195;50.838;7.214;2022-10-16T03:59:46;8.18;;;1.85;;
30398;SDS011;17195;50.838;7.214;2022-10-16T04:02:12;6.45;;;1.30;;
30398;SDS011;17195;50.838;7.214;2022-10-16T04:04:38;3.90;;;1.50;;
30398;SDS011;17195;50.838;7.214;2022-10-16T04:07:03;3.20;;;1.65;;
30398;SDS011;17195;50.838;7.214;2022-10-16T04:09:29;2.58;;;1.90;;
30398;SDS011;17195;50.838;7.214;2022-10-16T04:11:54;4.03;;;1.67;;
30398;SDS011;17195;50.838;7.214;2022-10-16T04:14:20;2.90;;;1.20;;
30398;SDS011;17195;50.838;7.214;2022-10-16T04:16:45;4.82;;;1.50;;
30398;SDS011;17195;50.838;7.214;2022-10-16T04:19:11;6.18;;;1.55;;
30398;SDS011;17195;50.838;7.214;2022-10-16T04:21:37;2.33;;;1.67;;
30398;SDS011;17195;50.838;7.214;2022-10-16T04:24:03;3.90;;;1.58;;
30398;SDS011;17195;50.838;7.214;2022-10-16T04:26:28;2.40;;;1.02;;
30398;SDS011;17195;50.838;7.214;2022-10-16T04:28:54;0.75;;;0.60;;
30398;SDS011;17195;50.838;7.214;2022-10-16T04:31:20;1.60;;;0.75;;
30398;SDS011;17195;50.838;7.214;2022-10-16T04:33:46;0.75;;;0.47;;
30398;SDS011;17195;50.838;7.214;2022-10-16T04:36:11;1.25;;;0.60;;
30398;SDS011;17195;50.838;7.214;2022-10-16T04:38:37;2.78;;;0.90;;
30398;SDS011;17195;50.838;7.214;2022-10-16T04:41:04;2.80;;;1.40;;
30398;SDS011;17195;50.838;7.214;2022-10-16T04:43:30;3.38;;;1.40;;
30398;SDS011;17195;50.838;7.214;2022-10-16T04:45:56;2.42;;;1.30;;
30398;SDS011;17195;50.838;7.214;2022-10-16T04:48:22;3.13;;;1.30;;
30398;SDS011;17195;50.838;7.214;2022-10-16T04:50:48;2.70;;;1.35;;
30398;SDS011;17195;50.838;7.214;2022-10-16T04:53:13;1.38;;;0.95;;
30398;SDS011;17195;50.838;7.214;2022-10-16T04:55:39;0.90;;;0.85;;
30398;SDS011;17195;50.838;7.214;2022-10-16T04:58:06;5.70;;;1.27;;
30398;SDS011;17195;50.838;7.214;2022-10-16T05:00:32;0.80;;;0.80;;
30398;SDS011;17195;50.838;7.214;2022-10-16T05:02:57;3.22;;;1.00;;
30398;SDS011;17195;50.838;7.214;2022-10-16T05:05:25;2.17;;;1.00;;
30398;SDS011;17195;50.838;7.214;2022-10-16T05:07:51;4.13;;;0.90;;
30398;SDS011;17195;50.838;7.214;2022-10-16T05:10:17;1.77;;;0.60;;
30398;SDS011;17195;50.838;7.214;2022-10-16T05:12:43;3.28;;;0.70;;
30398;SDS011;17195;50.838;7.214;2022-10-16T05:15:08;4.32;;;0.77;;
30398;SDS011;17195;50.838;7.214;2022-10-16T05:17:34;3.20;;;1.13;;
30398;SDS011;17195;50.838;7.214;2022-10-16T05:20:00;4.22;;;0.98;;
30398;SDS011;17195;50.838;7.214;2022-10-16T05:22:25;3.13;;;1.10;;
30398;SDS011;17195;50.838;7.214;2022-10-16T05:24:51;1.13;;;0.90;;
30398;SDS011;17195;50.838;7.214;2022-10-16T05:27:16;10.05;;;1.23;;
30398;SDS011;17195;50.838;7.214;2022-10-16T05:29:45;1.60;;;0.80;;
30398;SDS011;17195;50.838;7.214;2022-10-16T05:32:12;2.67;;;0.80;;
30398;SDS011;17195;50.838;7.214;2022-10-16T05:34:38;0.77;;;0.68;;
30398;SDS011;17195;50.838;7.214;2022-10-16T05:37:04;1.15;;;0.80;;
30398;SDS011;17195;50.838;7.214;2022-10-16T05:39:30;2.00;;;0.70;;
30398;SDS011;17195;50.838;7.214;2022-10-16T05:41:55;4.05;;;0.73;;
30398;SDS011;17195;50.838;7.214;2022-10-16T05:44:21;2.67;;;0.70;;
30398;SDS011;17195;50.838;7.214;2022-10-16T05:46:47;0.80;;;0.70;;
30398;SDS011;17195;50.838;7.214;2022-10-16T05:49:12;2.58;;;0.80;;
30398;SDS011;17195;50.838;7.214;2022-10-16T05:51:38;2.15;;;0.70;;
30398;SDS011;17195;50.838;7.214;2022-10-16T05:54:03;2.90;;;0.93;;
30398;SDS011;17195;50.838;7.214;2022-10-16T05:56:29;1.17;;;0.80;;
30398;SDS011;17195;50.838;7.214;2022-10-16T05:58:54;2.55;;;1.00;;
30398;SDS011;17195;50.838;7.214;2022-10-16T06:01:20;2.72;;;0.93;;
30398;SDS011;17195;50.838;7.214;2022-10-16T06:03:49;0.82;;;0.68;;
30398;SDS011;17195;50.838;7.214;2022-10-16T06:06:16;1.95;;;1.00;;
30398;SDS011;17195;50.838;7.214;2022-10-16T06:08:45;2.35;;;1.30;;
30398;SDS011;17195;50.838;7.214;2022-10-16T06:11:13;3.17;;;1.40;;
30398;SDS011;17195;50.838;7.214;2022-10-16T06:13:40;4.75;;;2.65;;
30398;SDS011;17195;50.838;7.214;2022-10-16T06:16:07;5.63;;;2.40;;
30398;SDS011;17195;50.838;7.214;2022-10-16T06:18:35;7.18;;;2.30;;
30398;SDS011;17195;50.838;7.214;2022-10-16T06:21:06;3.85;;;2.15;;
30398;SDS011;17195;50.838;7.214;2022-10-16T06:23:33;5.05;;;2.10;;
30398;SDS011;17195;50.838;7.214;2022-10-16T06:26:06;3.35;;;2.30;;
30398;SDS011;17195;50.838;7.214;2022-10-16T06:28:33;4.07;;;2.15;;
30398;SDS011;17195;50.838;7.214;2022-10-16T06:30:59;4.68;;;1.40;;
30398;SDS011;17195;50.838;7.214;2022-10-16T06:33:25;3.42;;;1.70;;
30398;SDS011;17195;50.838;7.214;2022-10-16T06:35:51;3.58;;;1.63;;
30398;SDS011;17195;50.838;7.214;2022-10-16T06:38:17;4.32;;;1.10;;
30398;SDS011;17195;50.838;7.214;2022-10-16T06:40:42;3.05;;;1.00;;
30398;SDS011;17195;50.838;7.214;2022-10-16T06:43:08;1.25;;;1.10;;
30398;SDS011;17195;50.838;7.214;2022-10-16T06:45:33;5.40;;;2.15;;
30398;SDS011;17195;50.838;7.214;2022-10-16T06:47:59;5.18;;;3.70;;
30398;SDS011;17195;50.838;7.214;2022-10-16T06:50:24;4.43;;;1.90;;
30398;SDS011;17195;50.838;7.214;2022-10-16T06:52:50;4.40;;;1.38;;
30398;SDS011;17195;50.838;7.214;2022-10-16T06:55:15;3.55;;;1.80;;
30398;SDS011;17195;50.838;7.214;2022-10-16T06:57:42;3.45;;;1.67;;
30398;SDS011;17195;50.838;7.214;2022-10-16T07:00:08;9.35;;;2.30;;
30398;SDS011;17195;50.838;7.214;2022-10-16T07:02:34;2.95;;;2.10;;
30398;SDS011;17195;50.838;7.214;2022-10-16T07:05:00;3.20;;;1.90;;
30398;SDS011;17195;50.838;7.214;2022-10-16T07:07:25;2.97;;;2.25;;
30398;SDS011;17195;50.838;7.214;2022-10-16T07:09:51;4.30;;;2.60;;
30398;SDS011;17195;50.838;7.214;2022-10-16T07:12:17;7.95;;;3.08;;
30398;SDS011;17195;50.838;7.214;2022-10-16T07:14:42;8.80;;;3.65;;
30398;SDS011;17195;50.838;7.214;2022-10-16T07:17:08;7.32;;;4.82;;
30398;SDS011;17195;50.838;7.214;2022-10-16T07:19:34;10.70;;;7.57;;
30398;SDS011;17195;50.838;7.214;2022-10-16T07:21:59;9.15;;;5.78;;
30398;SDS011;17195;50.838;7.214;2022-10-16T07:24:25;8.73;;;5.50;;
30398;SDS011;17195;50.838;7.214;2022-10-16T07:26:51;8.93;;;5.32;;
30398;SDS011;17195;50.838;7.214;2022-10-16T07:29:17;8.60;;;5.25;;
30398;SDS011;17195;50.838;7.214;2022-10-16T07:31:45;11.70;;;4.80;;
30398;SDS011;17195;50.838;7.214;2022-10-16T07:34:12;5.72;;;5.13;;
30398;SDS011;17195;50.838;7.214;2022-10-16T07:36:39;12.07;;;4.95;;
30398;SDS011;17195;50.838;7.214;2022-10-16T07:39:05;6.43;;;4.82;;
30398;SDS011;17195;50.838;7.214;2022-10-16T07:41:31;5.05;;;4.55;;
30398;SDS011;17195;50.838;7.214;2022-10-16T07:43:58;5.20;;;4.60;;
30398;SDS011;17195;50.838;7.214;2022-10-16T07:46:25;7.60;;;4.55;;
30398;SDS011;17195;50.838;7.214;2022-10-16T07:48:51;7.07;;;4.53;;
30398;SDS011;17195;50.838;7.214;2022-10-16T07:51:17;5.25;;;4.25;;
30398;SDS011;17195;50.838;7.214;2022-10-16T07:53:44;5.25;;;3.40;;
30398;SDS011;17195;50.838;7.214;2022-10-16T07:56:10;5.43;;;4.10;;
30398;SDS011;17195;50.838;7.214;2022-10-16T07:58:36;9.05;;;5.40;;
30398;SDS011;17195;50.838;7.214;2022-10-16T08:01:07;7.78;;;5.50;;
30398;SDS011;17195;50.838;7.214;2022-10-16T08:03:34;8.88;;;6.82;;
30398;SDS011;17195;50.838;7.214;2022-10-16T08:06:00;12.27;;;7.38;;
30398;SDS011;17195;50.838;7.214;2022-10-16T08:08:26;10.43;;;6.70;;
30398;SDS011;17195;50.838;7.214;2022-10-16T08:10:52;10.40;;;7.35;;
30398;SDS011;17195;50.838;7.214;2022-10-16T08:13:18;13.10;;;8.38;;
30398;SDS011;17195;50.838;7.214;2022-10-16T08:15:44;11.35;;;8.75;;
30398;SDS011;17195;50.838;7.214;2022-10-16T08:18:10;9.15;;;7.40;;
30398;SDS011;17195;50.838;7.214;2022-10-16T08:20:37;7.03;;;5.45;;
30398;SDS011;17195;50.838;7.214;2022-10-16T08:23:04;4.35;;;3.13;;
30398;SDS011;17195;50.838;7.214;2022-10-16T08:25:30;2.17;;;1.80;;
30398;SDS011;17195;50.838;7.214;2022-10-16T08:27:56;4.55;;;2.00;;
30398;SDS011;17195;50.838;7.214;2022-10-16T08:30:22;3.60;;;2.17;;
30398;SDS011;17195;50.838;7.214;2022-10-16T08:32:48;3.40;;;2.28;;
30398;SDS011;17195;50.838;7.214;2022-10-16T08:35:14;7.63;;;1.48;;
30398;SDS011;17195;50.838;7.214;2022-10-16T08:37:40;1.85;;;1.67;;
30398;SDS011;17195;50.838;7.214;2022-10-16T08:40:06;3.22;;;1.30;;
30398;SDS011;17195;50.838;7.214;2022-10-16T08:51:00;2.10;;;1.25;;
30398;SDS011;17195;50.838;7.214;2022-10-16T08:54:15;1.45;;;1.20;;
30398;SDS011;17195;50.838;7.214;2022-10-16T08:56:22;4.50;;;0.80;;
30398;SDS011;17195;50.838;7.214;2022-10-16T08:58:49;1.20;;;1.10;;
30398;SDS011;17195;50.838;7.214;2022-10-16T09:01:16;3.58;;;0.88;;
30398;SDS011;17195;50.838;7.214;2022-10-16T09:06:37;1.83;;;1.10;;
30398;SDS011;17195;50.838;7.214;2022-10-16T09:11:52;5.18;;;1.30;;
30398;SDS011;17195;50.838;7.214;2022-10-16T09:17:04;4.18;;;1.48;;
30398;SDS011;17195;50.838;7.214;2022-10-16T09:19:50;3.38;;;1.00;;
30398;SDS011;17195;50.838;7.214;2022-10-16T09:22:21;3.80;;;0.75;;
30398;SDS011;17195;50.838;7.214;2022-10-16T09:24:54;2.67;;;0.90;;
30398;SDS011;17195;50.838;7.214;2022-10-16T09:27:24;0.65;;;0.52;;
30398;SDS011;17195;50.838;7.214;2022-10-16T09:29:51;1.77;;;0.70;;
30398;SDS011;17195;50.838;7.214;2022-10-16T09:32:18;0.80;;;0.75;;
30398;SDS011;17195;50.838;7.214;2022-10-16T09:34:47;1.90;;;1.00;;
30398;SDS011;17195;50.838;7.214;2022-10-16T09:37:19;2.78;;;0.63;;
30398;SDS011;17195;50.838;7.214;2022-10-16T09:39:50;0.50;;;0.50;;
30398;SDS011;17195;50.838;7.214;2022-10-16T09:42:20;1.92;;;1.10;;
30398;SDS011;17195;50.838;7.214;2022-10-16T09:44:51;2.95;;;0.77;;
30398;SDS011;17195;50.838;7.214;2022-10-16T09:47:20;1.05;;;0.80;;
30398;SDS011;17195;50.838;7.214;2022-10-16T09:49:55;1.95;;;0.80;;
30398;SDS011;17195;50.838;7.214;2022-10-16T09:52:31;0.82;;;0.70;;
30398;SDS011;17195;50.838;7.214;2022-10-16T09:55:01;3.50;;;0.70;;
30398;SDS011;17195;50.838;7.214;2022-10-16T09:57:37;2.97;;;0.80;;
30398;SDS011;17195;50.838;7.214;2022-10-16T10:00:17;2.42;;;0.40;;
30398;SDS011;17195;50.838;7.214;2022-10-16T10:02:43;1.30;;;1.10;;
30398;SDS011;17195;50.838;7.214;2022-10-16T10:05:20;0.75;;;0.40;;
30398;SDS011;17195;50.838;7.214;2022-10-16T10:07:53;1.33;;;0.38;;
30398;SDS011;17195;50.838;7.214;2022-10-16T10:10:28;2.63;;;0.52;;
30398;SDS011;17195;50.838;7.214;2022-10-16T10:12:55;1.85;;;0.80;;
30398;SDS011;17195;50.838;7.214;2022-10-16T10:15:22;1.05;;;0.50;;
30398;SDS011;17195;50.838;7.214;2022-10-16T10:20:31;7.22;;;4.32;;
30398;SDS011;17195;50.838;7.214;2022-10-16T10:22:59;2.78;;;0.50;;
30398;SDS011;17195;50.838;7.214;2022-10-16T10:30:44;2.17;;;0.50;;
30398;SDS011;17195;50.838;7.214;2022-10-16T10:33:42;0.43;;;0.38;;
30398;SDS011;17195;50.838;7.214;2022-10-16T10:36:29;1.42;;;0.50;;
30398;SDS011;17195;50.838;7.214;2022-10-16T10:55:42;1.48;;;0.60;;
30398;SDS011;17195;50.838;7.214;2022-10-16T10:58:22;1.38;;;0.50;;
30398;SDS011;17195;50.838;7.214;2022-10-16T11:06:18;1.50;;;0.30;;
30398;SDS011;17195;50.838;7.214;2022-10-16T11:08:53;0.75;;;0.30;;
30398;SDS011;17195;50.838;7.214;2022-10-16T11:11:31;1.10;;;0.40;;
30398;SDS011;17195;50.838;7.214;2022-10-16T11:14:14;0.93;;;0.40;;
30398;SDS011;17195;50.838;7.214;2022-10-16T11:16:59;1.52;;;0.30;;
30398;SDS011;17195;50.838;7.214;2022-10-16T11:19:35;0.80;;;0.20;;
30398;SDS011;17195;50.838;7.214;2022-10-16T11:30:59;0.77;;;0.30;;
30398;SDS011;17195;50.838;7.214;2022-10-16T11:33:47;2.70;;;0.95;;
30398;SDS011;17195;50.838;7.214;2022-10-16T11:39:21;0.30;;;0.30;;
30398;SDS011;17195;50.838;7.214;2022-10-16T11:42:10;3.55;;;0.38;;
30398;SDS011;17195;50.838;7.214;2022-10-16T11:47:34;1.20;;;0.30;;
30398;SDS011;17195;50.838;7.214;2022-10-16T11:50:24;2.97;;;0.40;;
30398;SDS011;17195;50.838;7.214;2022-10-16T11:55:46;1.15;;;0.30;;
30398;SDS011;17195;50.838;7.214;2022-10-16T12:09:26;2.45;;;0.73;;
30398;SDS011;17195;50.838;7.214;2022-10-16T12:11:54;2.00;;;0.40;;
30398;SDS011;17195;50.838;7.214;2022-10-16T12:14:21;3.60;;;0.40;;
30398;SDS011;17195;50.838;7.214;2022-10-16T12:17:01;0.77;;;0.35;;
30398;SDS011;17195;50.838;7.214;2022-10-16T12:19:30;0.80;;;0.40;;
30398;SDS011;17195;50.838;7.214;2022-10-16T12:22:01;6.47;;;3.10;;
30398;SDS011;17195;50.838;7.214;2022-10-16T12:24:38;2.22;;;0.63;;
30398;SDS011;17195;50.838;7.214;2022-10-16T12:27:19;0.40;;;0.40;;
30398;SDS011;17195;50.838;7.214;2022-10-16T12:29:54;1.80;;;0.30;;
30398;SDS011;17195;50.838;7.214;2022-10-16T12:34:56;1.75;;;0.70;;
30398;SDS011;17195;50.838;7.214;2022-10-16T12:37:28;1.55;;;0.40;;
30398;SDS011;17195;50.838;7.214;2022-10-16T12:39:58;0.82;;;0.30;;
30398;SDS011;17195;50.838;7.214;2022-10-16T12:42:35;0.95;;;0.30;;
30398;SDS011;17195;50.838;7.214;2022-10-16T12:45:01;0.52;;;0.30;;
30398;SDS011;17195;50.838;7.214;2022-10-16T12:47:46;1.48;;;0.40;;
30398;SDS011;17195;50.838;7.214;2022-10-16T12:53:15;0.35;;;0.25;;
30398;SDS011;17195;50.838;7.214;2022-10-16T12:55:50;0.38;;;0.30;;
30398;SDS011;17195;50.838;7.214;2022-10-16T13:06:47;1.10;;;0.70;;
30398;SDS011;17195;50.838;7.214;2022-10-16T13:12:01;1.17;;;0.60;;
30398;SDS011;17195;50.838;7.214;2022-10-16T13:17:49;0.38;;;0.20;;
30398;SDS011;17195;50.838;7.214;2022-10-16T13:20:29;2.85;;;0.30;;
30398;SDS011;17195;50.838;7.214;2022-10-16T13:23:13;0.43;;;0.20;;
30398;SDS011;17195;50.838;7.214;2022-10-16T13:28:54;1.52;;;0.30;;
30398;SDS011;17195;50.838;7.214;2022-10-16T13:31:25;1.27;;;0.20;;
30398;SDS011;17195;50.838;7.214;2022-10-16T13:33:51;2.08;;;0.20;;
30398;SDS011;17195;50.838;7.214;2022-10-16T13:38:58;0.95;;;0.30;;
30398;SDS011;17195;50.838;7.214;2022-10-16T13:41:45;1.90;;;0.20;;
30398;SDS011;17195;50.838;7.214;2022-10-16T13:44:15;0.28;;;0.20;;
30398;SDS011;17195;50.838;7.214;2022-10-16T13:46:44;0.28;;;0.20;;
30398;SDS011;17195;50.838;7.214;2022-10-16T13:49:14;4.88;;;0.60;;
30398;SDS011;17195;50.838;7.214;2022-10-16T13:51:47;1.33;;;0.40;;
30398;SDS011;17195;50.838;7.214;2022-10-16T13:54:19;0.57;;;0.32;;
30398;SDS011;17195;50.838;7.214;2022-10-16T13:56:45;1.10;;;0.35;;
30398;SDS011;17195;50.838;7.214;2022-10-16T13:59:24;2.38;;;0.40;;
30398;SDS011;17195;50.838;7.214;2022-10-16T14:01:51;2.38;;;0.40;;
30398;SDS011;17195;50.838;7.214;2022-10-16T14:04:21;2.78;;;0.52;;
30398;SDS011;17195;50.838;7.214;2022-10-16T14:06:48;1.00;;;0.30;;
30398;SDS011;17195;50.838;7.214;2022-10-16T14:09:28;0.52;;;0.30;;
30398;SDS011;17195;50.838;7.214;2022-10-16T14:12:00;1.58;;;0.40;;
30398;SDS011;17195;50.838;7.214;2022-10-16T14:14:31;0.95;;;0.30;;
30398;SDS011;17195;50.838;7.214;2022-10-16T14:17:00;0.30;;;0.28;;
30398;SDS011;17195;50.838;7.214;2022-10-16T14:19:28;3.65;;;0.40;;
30398;SDS011;17195;50.838;7.214;2022-10-16T14:21:55;0.30;;;0.20;;
30398;SDS011;17195;50.838;7.214;2022-10-16T14:24:39;0.40;;;0.22;;
30398;SDS011;17195;50.838;7.214;2022-10-16T14:27:23;1.65;;;0.32;;
30398;SDS011;17195;50.838;7.214;2022-10-16T14:32:40;1.20;;;0.80;;
30398;SDS011;17195;50.838;7.214;2022-10-16T14:35:21;0.52;;;0.43;;
30398;SDS011;17195;50.838;7.214;2022-10-16T14:37:51;1.10;;;0.40;;
30398;SDS011;17195;50.838;7.214;2022-10-16T14:40:17;2.05;;;0.40;;
30398;SDS011;17195;50.838;7.214;2022-10-16T14:42:43;0.90;;;0.50;;
30398;SDS011;17195;50.838;7.214;2022-10-16T14:45:10;2.25;;;0.30;;
30398;SDS011;17195;50.838;7.214;2022-10-16T14:47:36;2.20;;;0.30;;
30398;SDS011;17195;50.838;7.214;2022-10-16T14:50:19;1.52;;;0.30;;
30398;SDS011;17195;50.838;7.214;2022-10-16T14:52:45;3.00;;;0.60;;
30398;SDS011;17195;50.838;7.214;2022-10-16T14:55:10;1.10;;;0.50;;
30398;SDS011;17195;50.838;7.214;2022-10-16T14:57:37;3.92;;;0.50;;
30398;SDS011;17195;50.838;7.214;2022-10-16T15:00:08;1.95;;;0.38;;
30398;SDS011;17195;50.838;7.214;2022-10-16T15:02:40;0.75;;;0.70;;
30398;SDS011;17195;50.838;7.214;2022-10-16T15:05:28;1.95;;;0.40;;
30398;SDS011;17195;50.838;7.214;2022-10-16T15:07:54;0.65;;;0.40;;
30398;SDS011;17195;50.838;7.214;2022-10-16T15:10:20;1.50;;;0.30;;
30398;SDS011;17195;50.838;7.214;2022-10-16T15:12:48;1.75;;;0.50;;
30398;SDS011;17195;50.838;7.214;2022-10-16T15:15:23;2.03;;;0.45;;
30398;SDS011;17195;50.838;7.214;2022-10-16T15:17:57;4.10;;;0.50;;
30398;SDS011;17195;50.838;7.214;2022-10-16T15:20:25;3.05;;;0.40;;
30398;SDS011;17195;50.838;7.214;2022-10-16T15:22:52;4.13;;;0.60;;
30398;SDS011;17195;50.838;7.214;2022-10-16T15:27:56;1.08;;;0.40;;
30398;SDS011;17195;50.838;7.214;2022-10-16T15:30:22;0.90;;;0.45;;
30398;SDS011;17195;50.838;7.214;2022-10-16T15:32:48;1.83;;;0.80;;
30398;SDS011;17195;50.838;7.214;2022-10-16T15:35:14;2.75;;;0.65;;
30398;SDS011;17195;50.838;7.214;2022-10-16T15:37:39;3.97;;;0.85;;
30398;SDS011;17195;50.838;7.214;2022-10-16T15:40:05;1.52;;;0.55;;
30398;SDS011;17195;50.838;7.214;2022-10-16T15:42:31;2.00;;;0.60;;
30398;SDS011;17195;50.838;7.214;2022-10-16T15:44:56;2.03;;;0.50;;
30398;SDS011;17195;50.838;7.214;2022-10-16T15:47:22;1.17;;;0.50;;
30398;SDS011;17195;50.838;7.214;2022-10-16T15:49:47;1.25;;;0.70;;
30398;SDS011;17195;50.838;7.214;2022-10-16T15:52:13;3.92;;;1.90;;
30398;SDS011;17195;50.838;7.214;2022-10-16T15:54:39;2.65;;;2.28;;
30398;SDS011;17195;50.838;7.214;2022-10-16T15:57:04;1.48;;;0.90;;
30398;SDS011;17195;50.838;7.214;2022-10-16T15:59:30;1.25;;;0.85;;
30398;SDS011;17195;50.838;7.214;2022-10-16T16:01:55;1.65;;;0.40;;
30398;SDS011;17195;50.838;7.214;2022-10-16T16:04:21;0.73;;;0.43;;
30398;SDS011;17195;50.838;7.214;2022-10-16T16:06:46;3.53;;;0.73;;
30398;SDS011;17195;50.838;7.214;2022-10-16T16:09:12;0.68;;;0.35;;
30398;SDS011;17195;50.838;7.214;2022-10-16T16:11:38;0.70;;;0.30;;
30398;SDS011;17195;50.838;7.214;2022-10-16T16:14:05;1.15;;;0.50;;
30398;SDS011;17195;50.838;7.214;2022-10-16T16:16:31;1.33;;;0.50;;
30398;SDS011;17195;50.838;7.214;2022-10-16T16:19:01;5.20;;;0.50;;
30398;SDS011;17195;50.838;7.214;2022-10-16T16:21:27;2.35;;;0.70;;
30398;SDS011;17195;50.838;7.214;2022-10-16T16:23:53;2.95;;;0.93;;
30398;SDS011;17195;50.838;7.214;2022-10-16T16:26:23;1.77;;;0.90;;
30398;SDS011;17195;50.838;7.214;2022-10-16T16:28:56;4.40;;;0.90;;
30398;SDS011;17195;50.838;7.214;2022-10-16T16:31:25;2.75;;;0.77;;
30398;SDS011;17195;50.838;7.214;2022-10-16T16:33:51;1.08;;;0.70;;
30398;SDS011;17195;50.838;7.214;2022-10-16T16:36:17;3.28;;;0.85;;
30398;SDS011;17195;50.838;7.214;2022-10-16T16:38:44;2.05;;;0.70;;
30398;SDS011;17195;50.838;7.214;2022-10-16T16:41:11;1.45;;;0.70;;
30398;SDS011;17195;50.838;7.214;2022-10-16T16:43:40;1.75;;;0.60;;
30398;SDS011;17195;50.838;7.214;2022-10-16T16:46:06;0.80;;;0.50;;
30398;SDS011;17195;50.838;7.214;2022-10-16T16:48:32;2.88;;;0.65;;
30398;SDS011;17195;50.838;7.214;2022-10-16T16:51:05;3.40;;;1.33;;
30398;SDS011;17195;50.838;7.214;2022-10-16T16:53:35;3.58;;;1.60;;
30398;SDS011;17195;50.838;7.214;2022-10-16T16:56:02;9.13;;;5.50;;
30398;SDS011;17195;50.838;7.214;2022-10-16T16:58:28;4.60;;;2.15;;
30398;SDS011;17195;50.838;7.214;2022-10-16T17:00:54;3.50;;;1.40;;
30398;SDS011;17195;50.838;7.214;2022-10-16T17:03:20;1.30;;;0.88;;
30398;SDS011;17195;50.838;7.214;2022-10-16T17:05:58;1.67;;;0.75;;